MWP weather

Mountain Airport
Mountain, Bagmati, Nepal

Public forecast

Using degrees Celsius for public forecast. Weather courtesy of forecast.io.

METAR (pilot weather report)

Closest report is Tribhuvan International Airport, 18.3 nm (33.8 km) S. Retrieved 2019/09/19 12:20 UTC (0 seconds ago):

VNKT 191220Z 07003KT 7000 FEW010 SCT030 BKN100 23/18 Q1018 NOSIG

TAF (pilot weather forecast)

Closest forecast is Tribhuvan International Airport, 18.3 nm (33.8 km) S. Retrieved 2019/09/19 12:42 UTC (0 seconds ago):

TAF VNKT 191100Z 1912/2012 15003KT 6000 FEW010 SCT030 BKN100 PROB30 1916/1922 5000 -RA FEW025CB BECMG 2000/2002 00000KT 4000 BR FEW010 SCT025 BKN100 BECMG 2004/2005 16004KT 6000 FEW015 SCT100 BECMG 2007/2009 24008KT 8000 FEW015 SCT030 BKN100 PROB30 2008/2012 VRB10KT 4000 -RA/SHRA FEW025CB